Terminal Aerodrome Forecast
Issued by NWS Billings, MT

Home | Current Version | Previous Version | Text Only | Print | Product List | Glossary Off
Versions: 1 2 3 4 5 6 7 8 9 10 11 12 13

000
FTUS45 KBYZ 130533
TAFMLS
TAF
KMLS 130533Z 1306/1406 30018G27KT P6SM SCT250
     FM130700 31015KT P6SM SCT200 WS020/32045KT
     FM131200 29015G30KT P6SM SKC
     FM132000 30014G20KT P6SM SCT250=

USA.gov is the U.S. government's official web portal to all federal, state and local government web resources and services.